Cincinnati, Ohio
Traffic Map
Current Weather Conditions
Cincinnati, Ohio
Clear
Clear
65°
Feels Like: 65°
Wind Chill: 65° Ceiling: Unl
Heat Index: 65° Visibility: 10mi
Dew Point: 51° Wind: 8mph
Humidity: 61% Direction: 280° (W)
Pressure: 29.93in Gusts: 0mph
Raw Report DataKLUK 260353Z AUTO 28007KT 10SM CLR 18/11 A2993 RMK AO2 SLP134 T01830106
Traffic Incident Summary
Active as of:
Severity:
Category:
InformationThere was an issue retrieving the traffic information for this location. Please try a different location or try again shortly.
Advertisements
Track Severe Weather on mobile